Time;durP1;ratioP1;P1;durP2;ratioP2;P2;SDS_P1;SDS_P2;PMS_P1;PMS_P2;Temp;Humidity;BMP_temperature;BMP_pressure;BME280_temperature;BME280_humidity;BME280_pressure;Samples;Min_cycle;Max_cycle;Signal;HPM_P1;HPM_P2
2023/11/16 00:02:05;;;;;;;9.13;2.25;;;10.80;99.90;;;;;;4935677;29;20031;-85
2023/11/16 00:04:33;;;;;;;10.88;3.13;;;10.50;99.90;;;;;;4934650;29;20051;-85
2023/11/16 00:06:59;;;;;;;12.10;1.80;;;10.50;99.90;;;;;;4925728;29;20103;-86
2023/11/16 00:09:25;;;;;;;12.93;1.90;;;10.50;99.90;;;;;;4929135;29;20034;-85
2023/11/16 00:11:50;;;;;;;5.25;1.52;;;10.70;99.90;;;;;;4935395;29;20043;-85
2023/11/16 00:14:17;;;;;;;6.88;1.17;;;11.60;99.90;;;;;;4934727;29;20127;-86
2023/11/16 00:16:44;;;;;;;5.07;1.27;;;10.40;99.90;;;;;;4934460;29;20114;-85
2023/11/16 00:19:09;;;;;;;8.02;1.38;;;10.40;99.90;;;;;;4935521;29;20028;-84
2023/11/16 00:21:36;;;;;;;3.38;1.50;;;11.10;99.90;;;;;;4922703;29;20362;-85
2023/11/16 00:24:05;;;;;;;7.97;1.10;;;10.20;99.90;;;;;;4925188;29;20020;-84
2023/11/16 00:26:33;;;;;;;10.38;1.60;;;10.20;99.90;;;;;;4929527;29;20039;-85
2023/11/16 00:29:00;;;;;;;6.20;1.60;;;10.20;99.90;;;;;;4933114;29;20032;-84
2023/11/16 00:31:26;;;;;;;11.98;2.67;;;10.80;99.90;;;;;;4934861;29;20048;-85
2023/11/16 00:33:52;;;;;;;6.38;1.80;;;10.90;99.90;;;;;;4926004;29;20381;-85
2023/11/16 00:36:18;;;;;;;6.75;1.92;;;10.10;99.90;;;;;;4931255;29;20031;-84
2023/11/16 00:38:43;;;;;;;14.38;2.20;;;10.00;99.90;;;;;;4934652;29;20432;-84
2023/11/16 00:41:15;;;;;;;11.80;2.30;;;10.00;99.90;;;;;;4934853;29;20059;-85
2023/11/16 00:43:43;;;;;;;9.35;2.08;;;10.10;99.90;;;;;;4934184;29;20031;-85
2023/11/16 00:46:11;;;;;;;6.50;1.45;;;10.10;99.90;;;;;;4925726;29;20032;-85
2023/11/16 00:48:36;;;;;;;8.93;1.48;;;10.00;99.90;;;;;;4915717;29;20524;-86
2023/11/16 00:51:02;;;;;;;8.07;1.80;;;10.10;99.90;;;;;;4927972;29;20048;-85
2023/11/16 00:53:29;;;;;;;8.80;1.98;;;10.10;99.90;;;;;;4934256;29;20035;-85
2023/11/16 00:55:55;;;;;;;4.55;1.65;;;10.10;99.90;;;;;;4935346;29;20389;-85
2023/11/16 00:58:21;;;;;;;7.40;1.75;;;10.00;99.90;;;;;;4933880;29;20056;-85
2023/11/16 01:00:51;;;;;;;10.10;1.80;;;10.10;99.90;;;;;;4935100;29;20070;-85
2023/11/16 01:03:18;;;;;;;9.25;1.85;;;10.10;99.90;;;;;;4937465;29;20019;-84
2023/11/16 01:05:44;;;;;;;7.30;1.75;;;10.10;99.90;;;;;;4934002;29;20084;-85
2023/11/16 01:08:10;;;;;;;10.95;1.63;;;10.10;99.90;;;;;;4933496;29;20028;-85
2023/11/16 01:10:37;;;;;;;5.63;1.73;;;10.10;99.90;;;;;;4917445;29;20071;-85
2023/11/16 01:13:07;;;;;;;6.75;1.58;;;10.10;99.90;;;;;;4926159;29;20024;-85
2023/11/16 01:15:39;;;;;;;6.90;1.80;;;10.10;99.90;;;;;;4915304;29;20393;-85
2023/11/16 01:18:07;;;;;;;3.25;1.45;;;10.10;99.90;;;;;;4914485;29;20060;-84
2023/11/16 01:20:35;;;;;;;9.48;1.92;;;10.10;99.90;;;;;;4915351;29;20024;-83
2023/11/16 01:23:02;;;;;;;5.07;1.98;;;10.10;99.90;;;;;;4915847;29;20040;-86
2023/11/16 01:25:30;;;;;;;6.78;2.22;;;10.00;99.90;;;;;;4917126;29;20028;-84
2023/11/16 01:27:59;;;;;;;7.45;2.20;;;10.10;99.90;;;;;;4919439;29;20029;-84
2023/11/16 01:30:25;;;;;;;6.82;1.88;;;10.10;99.90;;;;;;4930123;29;20092;-86
2023/11/16 01:32:51;;;;;;;7.85;2.25;;;10.10;99.90;;;;;;4918503;29;20190;-85
2023/11/16 01:35:21;;;;;;;6.78;1.77;;;10.00;99.90;;;;;;4919182;29;20028;-85
2023/11/16 01:37:47;;;;;;;4.47;1.20;;;10.00;99.90;;;;;;4926156;29;20031;-85
2023/11/16 01:40:13;;;;;;;3.75;0.80;;;9.90;99.90;;;;;;4918129;29;20518;-85
2023/11/16 01:42:38;;;;;;;1.95;0.98;;;9.90;99.90;;;;;;4918770;29;20107;-86
2023/11/16 01:45:05;;;;;;;2.63;1.00;;;9.80;99.90;;;;;;4919043;29;20021;-84
2023/11/16 01:47:31;;;;;;;5.70;0.88;;;9.80;99.90;;;;;;4917622;29;20409;-84
2023/11/16 01:49:56;;;;;;;7.38;1.85;;;9.90;99.90;;;;;;4917610;29;20044;-85
2023/11/16 01:52:22;;;;;;;5.80;1.00;;;9.70;99.90;;;;;;4923872;29;20039;-86
2023/11/16 01:54:48;;;;;;;4.18;0.80;;;9.60;99.90;;;;;;4930451;29;20024;-85
2023/11/16 01:57:14;;;;;;;5.53;1.10;;;9.60;99.90;;;;;;4920913;29;20071;-86
2023/11/16 01:59:41;;;;;;;4.68;1.38;;;9.60;99.90;;;;;;4924153;29;20083;-85
2023/11/16 02:02:10;;;;;;;2.70;1.00;;;9.60;99.90;;;;;;4935875;29;20031;-85
2023/11/16 02:04:37;;;;;;;4.32;0.90;;;9.60;99.90;;;;;;4936834;29;20059;-85
2023/11/16 02:07:06;;;;;;;3.67;0.82;;;9.90;99.90;;;;;;4937426;29;20031;-85
2023/11/16 02:09:31;;;;;;;5.50;1.00;;;9.60;99.90;;;;;;4937447;29;20095;-85
2023/11/16 02:11:57;;;;;;;5.97;1.33;;;9.60;99.90;;;;;;4937767;29;20083;-85
2023/11/16 02:14:23;;;;;;;3.53;0.88;;;9.70;99.90;;;;;;4933934;29;20075;-85
2023/11/16 02:16:49;;;;;;;6.15;0.98;;;9.60;99.90;;;;;;4932765;29;20119;-85
2023/11/16 02:19:31;;;;;;;5.40;1.42;;;9.70;99.90;;;;;;4918327;29;20036;-86
2023/11/16 02:22:03;;;;;;;4.82;1.35;;;9.70;99.90;;;;;;4929660;29;20032;-86
2023/11/16 02:24:30;;;;;;;5.30;1.65;;;9.80;99.90;;;;;;4936929;29;20035;-85
2023/11/16 02:26:56;;;;;;;6.75;1.48;;;9.80;99.90;;;;;;4937122;29;20476;-85
2023/11/16 02:29:21;;;;;;;4.32;1.10;;;9.80;99.90;;;;;;4934492;29;20040;-84
2023/11/16 02:31:47;;;;;;;3.42;1.52;;;9.80;99.90;;;;;;4918377;29;20485;-86
2023/11/16 02:34:12;;;;;;;5.45;1.85;;;9.90;99.90;;;;;;4930046;29;20036;-85
2023/11/16 02:36:38;;;;;;;4.78;0.95;;;10.20;99.90;;;;;;4933551;29;20027;-85
2023/11/16 02:39:06;;;;;;;7.95;1.40;;;10.00;99.90;;;;;;4918083;29;20059;-85
2023/11/16 02:41:32;;;;;;;6.05;1.40;;;10.00;99.90;;;;;;4917413;29;20481;-85
2023/11/16 02:43:57;;;;;;;4.95;1.13;;;10.00;99.90;;;;;;4917353;29;20066;-85
2023/11/16 02:46:23;;;;;;;3.80;0.90;;;10.00;99.90;;;;;;4934761;29;20389;-85
2023/11/16 02:48:48;;;;;;;4.13;1.00;;;10.00;99.90;;;;;;4936588;29;20038;-85
2023/11/16 02:51:14;;;;;;;3.42;0.90;;;10.10;99.90;;;;;;4937535;29;20134;-87
2023/11/16 02:53:41;;;;;;;10.00;1.42;;;11.10;99.90;;;;;;4938697;29;20042;-85
2023/11/16 02:56:08;;;;;;;6.13;1.08;;;10.10;99.90;;;;;;4923000;29;20362;-85
2023/11/16 02:58:34;;;;;;;7.82;1.17;;;10.10;99.90;;;;;;4916533;29;20484;-85
2023/11/16 03:01:02;;;;;;;2.65;1.25;;;10.10;99.90;;;;;;4931982;29;20059;-85
2023/11/16 03:03:28;;;;;;;9.98;1.45;;;10.20;99.90;;;;;;4935052;29;20058;-85
2023/11/16 03:05:53;;;;;;;2.83;1.15;;;10.10;99.90;;;;;;4936567;29;20390;-85
2023/11/16 03:08:19;;;;;;;3.17;0.88;;;10.20;99.90;;;;;;4936240;29;20102;-85
2023/11/16 03:10:45;;;;;;;3.95;1.08;;;10.20;99.90;;;;;;4935644;29;20031;-85
2023/11/16 03:13:16;;;;;;;9.02;1.27;;;10.30;99.90;;;;;;4936565;29;20043;-85
2023/11/16 03:15:42;;;;;;;10.20;1.35;;;10.50;99.90;;;;;;4918211;29;20048;-85
2023/11/16 03:18:07;;;;;;;4.32;1.05;;;10.30;99.90;;;;;;4917807;29;20071;-84
2023/11/16 03:20:34;;;;;;;4.63;1.00;;;10.30;99.90;;;;;;4927182;29;20024;-85
2023/11/16 03:22:59;;;;;;;2.83;0.80;;;10.30;99.90;;;;;;4917049;29;20469;-85
2023/11/16 03:25:26;;;;;;;3.25;1.10;;;10.30;99.90;;;;;;4916259;29;20024;-85
2023/11/16 03:27:52;;;;;;;3.42;1.40;;;10.30;99.90;;;;;;4916962;29;20040;-85
2023/11/16 03:30:17;;;;;;;4.60;1.05;;;10.30;99.90;;;;;;4916917;29;20035;-85
2023/11/16 03:32:46;;;;;;;4.28;1.25;;;10.30;99.90;;;;;;4916199;29;20081;-84
2023/11/16 03:35:13;;;;;;;7.25;1.30;;;10.30;99.90;;;;;;4916770;29;20024;-85
2023/11/16 03:37:42;;;;;;;4.32;1.10;;;10.30;99.90;;;;;;4916299;29;20031;-85
2023/11/16 03:40:09;;;;;;;9.35;1.25;;;10.30;99.90;;;;;;4931133;29;20441;-86
2023/11/16 03:42:34;;;;;;;3.45;1.05;;;10.30;99.90;;;;;;4934832;29;20028;-85
2023/11/16 03:45:00;;;;;;;5.47;0.90;;;10.30;99.90;;;;;;4935884;29;20028;-85
2023/11/16 03:47:25;;;;;;;3.25;1.10;;;10.30;99.90;;;;;;4929812;29;20451;-84
2023/11/16 03:49:51;;;;;;;4.93;1.10;;;10.30;99.90;;;;;;4935357;29;20523;-84
2023/11/16 03:52:16;;;;;;;4.07;1.20;;;10.40;99.90;;;;;;4935244;29;20043;-85
2023/11/16 03:54:45;;;;;;;4.57;1.73;;;10.40;99.90;;;;;;4922332;29;20028;-84
2023/11/16 03:57:11;;;;;;;3.28;1.02;;;10.30;99.90;;;;;;4916607;29;20750;-84
2023/11/16 03:59:37;;;;;;;5.45;1.50;;;10.30;99.90;;;;;;4926932;29;20027;-85
2023/11/16 04:02:04;;;;;;;4.40;1.30;;;10.30;99.90;;;;;;4934463;29;20032;-85
2023/11/16 04:04:30;;;;;;;6.25;1.70;;;10.40;99.90;;;;;;4916249;29;20081;-84
2023/11/16 04:06:56;;;;;;;9.65;1.83;;;10.40;99.90;;;;;;4915756;29;20429;-85
2023/11/16 04:09:23;;;;;;;2.75;1.50;;;10.40;99.90;;;;;;4916295;29;20061;-85
2023/11/16 04:11:50;;;;;;;3.42;1.40;;;10.40;99.90;;;;;;4931295;29;20054;-85
2023/11/16 04:14:16;;;;;;;5.15;1.73;;;10.40;99.90;;;;;;4929943;29;20111;-84
2023/11/16 04:16:42;;;;;;;4.97;1.50;;;10.40;99.90;;;;;;4915707;29;20374;-84
2023/11/16 04:19:09;;;;;;;5.03;1.83;;;10.40;99.90;;;;;;4916223;29;20044;-85
2023/11/16 04:21:36;;;;;;;6.70;1.63;;;11.20;99.90;;;;;;4927048;29;20063;-85
2023/11/16 04:24:08;;;;;;;1.98;1.35;;;10.40;99.90;;;;;;4918152;29;20056;-85
2023/11/16 04:26:37;;;;;;;8.27;2.20;;;10.40;99.90;;;;;;4934863;29;20028;-85
2023/11/16 04:29:05;;;;;;;4.38;2.00;;;10.40;99.90;;;;;;4934647;29;20085;-84
2023/11/16 04:31:31;;;;;;;5.28;1.92;;;10.40;99.90;;;;;;4934618;29;20047;-84
2023/11/16 04:33:57;;;;;;;6.82;2.47;;;10.40;99.90;;;;;;4925854;29;20087;-84
2023/11/16 04:36:28;;;;;;;5.18;2.22;;;10.30;99.90;;;;;;4914908;29;20052;-84
2023/11/16 04:38:57;;;;;;;5.65;2.33;;;10.30;99.90;;;;;;4917691;29;20032;-84
2023/11/16 04:41:24;;;;;;;5.38;2.30;;;10.30;99.90;;;;;;4918971;29;20044;-84
2023/11/16 04:43:50;;;;;;;8.38;3.60;;;10.70;99.90;;;;;;4916081;29;20029;-84
2023/11/16 04:46:16;;;;;;;6.60;2.67;;;10.20;99.90;;;;;;4926237;29;20034;-83
2023/11/16 04:48:43;;;;;;;4.45;2.42;;;10.20;99.90;;;;;;4927943;29;20028;-84
2023/11/16 04:51:17;;;;;;;3.63;2.75;;;10.20;99.90;;;;;;4921302;29;20408;-84
2023/11/16 04:53:43;;;;;;;4.93;2.20;;;10.20;99.90;;;;;;4915737;29;20052;-84
2023/11/16 04:56:09;;;;;;;3.20;1.90;;;10.10;99.90;;;;;;4915432;29;20031;-84
2023/11/16 04:58:35;;;;;;;5.60;2.83;;;10.70;99.90;;;;;;4915550;29;20099;-84
2023/11/16 05:01:01;;;;;;;7.60;2.65;;;10.20;99.90;;;;;;4918742;29;20035;-84
2023/11/16 05:03:26;;;;;;;5.50;2.63;;;10.20;99.90;;;;;;4926319;29;20111;-84
2023/11/16 05:05:52;;;;;;;6.35;3.90;;;10.20;99.90;;;;;;4919461;29;20050;-84
2023/11/16 05:08:19;;;;;;;5.63;2.72;;;10.10;99.90;;;;;;4919820;29;20035;-84
2023/11/16 05:10:47;;;;;;;8.25;2.50;;;10.20;99.90;;;;;;4918703;29;20118;-83
2023/11/16 05:13:13;;;;;;;5.80;2.70;;;10.20;99.90;;;;;;4919295;29;20148;-83
2023/11/16 05:15:40;;;;;;;6.80;2.75;;;10.20;99.90;;;;;;4936505;29;20028;-83
2023/11/16 05:18:06;;;;;;;5.68;3.10;;;10.20;99.90;;;;;;4933955;29;20088;-84
2023/11/16 05:20:31;;;;;;;8.85;4.03;;;10.20;99.90;;;;;;4918939;29;20024;-84
2023/11/16 05:22:57;;;;;;;4.45;2.72;;;10.50;99.90;;;;;;4928645;29;20031;-84
2023/11/16 05:25:23;;;;;;;10.93;3.38;;;10.20;99.90;;;;;;4924981;29;20055;-86
2023/11/16 05:27:48;;;;;;;6.28;2.75;;;10.20;99.90;;;;;;4936417;29;20062;-85
2023/11/16 05:30:14;;;;;;;7.22;3.17;;;10.20;99.90;;;;;;4938205;29;20024;-85
2023/11/16 05:32:39;;;;;;;5.00;3.30;;;10.30;99.90;;;;;;4936705;29;20475;-85
2023/11/16 05:35:05;;;;;;;7.20;3.72;;;10.20;99.90;;;;;;4925449;29;20039;-83
2023/11/16 05:37:31;;;;;;;5.78;3.50;;;10.30;99.90;;;;;;4918837;29;20118;-84
2023/11/16 05:39:58;;;;;;;9.65;3.50;;;10.30;99.90;;;;;;4918315;29;20484;-84
2023/11/16 05:42:24;;;;;;;9.18;3.28;;;10.30;99.90;;;;;;4919911;29;20032;-84
2023/11/16 05:44:50;;;;;;;9.20;3.80;;;10.30;99.90;;;;;;4932515;29;20023;-84
2023/11/16 05:47:15;;;;;;;5.80;4.50;;;10.20;99.90;;;;;;4929470;29;20030;-84
2023/11/16 05:49:41;;;;;;;7.65;4.03;;;10.30;99.90;;;;;;4926395;29;20030;-85
2023/11/16 05:52:06;;;;;;;4.78;3.92;;;10.30;99.90;;;;;;4935143;29;20051;-85
2023/11/16 05:54:33;;;;;;;5.18;3.60;;;10.30;99.90;;;;;;4933810;29;20027;-85
2023/11/16 05:56:59;;;;;;;5.75;3.38;;;10.30;99.90;;;;;;4936211;29;20032;-85
2023/11/16 05:59:25;;;;;;;5.63;2.88;;;10.30;99.90;;;;;;4936537;29;20417;-85
2023/11/16 06:01:50;;;;;;;6.80;3.25;;;11.30;99.90;;;;;;4937306;29;20031;-85
2023/11/16 06:04:16;;;;;;;4.65;3.65;;;10.30;99.90;;;;;;4937448;29;20035;-85
2023/11/16 06:06:41;;;;;;;5.85;3.65;;;10.30;99.90;;;;;;4936357;29;20028;-85
2023/11/16 06:09:07;;;;;;;5.15;3.40;;;10.30;99.90;;;;;;4924757;29;20036;-87
2023/11/16 06:11:32;;;;;;;6.78;3.58;;;10.30;99.90;;;;;;4927786;29;20040;-85
2023/11/16 06:13:59;;;;;;;9.48;3.45;;;10.30;99.90;;;;;;4935742;29;20035;-86
2023/11/16 06:16:25;;;;;;;3.90;3.10;;;10.30;99.90;;;;;;4936354;29;20036;-86
2023/11/16 06:18:57;;;;;;;6.72;3.60;;;10.30;99.90;;;;;;4936630;29;20034;-85
2023/11/16 06:21:22;;;;;;;6.13;4.30;;;10.30;99.90;;;;;;4936036;29;20102;-85
2023/11/16 06:23:48;;;;;;;4.90;3.33;;;10.30;99.90;;;;;;4936572;29;20055;-85
2023/11/16 06:26:14;;;;;;;7.80;3.90;;;10.30;99.90;;;;;;4936571;29;20023;-85
2023/11/16 06:28:40;;;;;;;7.60;3.90;;;10.30;99.90;;;;;;4935287;29;20535;-85
2023/11/16 06:31:05;;;;;;;11.75;3.50;;;10.30;99.90;;;;;;4928726;29;20040;-86
2023/11/16 06:33:32;;;;;;;4.38;3.30;;;10.30;99.90;;;;;;4930020;29;20517;-85
2023/11/16 06:35:58;;;;;;;7.38;4.03;;;10.40;99.90;;;;;;4944324;29;20499;-84
2023/11/16 06:38:24;;;;;;;10.15;3.60;;;10.30;99.90;;;;;;4941574;29;20034;-85
2023/11/16 06:40:49;;;;;;;9.25;4.85;;;10.30;99.90;;;;;;4946802;29;20032;-85
2023/11/16 06:43:15;;;;;;;4.22;3.33;;;11.20;99.90;;;;;;4937736;29;20362;-85
2023/11/16 06:45:43;;;;;;;9.77;4.57;;;10.80;99.90;;;;;;4941161;29;20059;-86
2023/11/16 06:48:09;;;;;;;5.20;3.08;;;10.30;99.90;;;;;;4942159;29;20034;-85
2023/11/16 06:50:36;;;;;;;9.70;3.50;;;10.40;99.90;;;;;;4944376;28;20479;-85
2023/11/16 06:53:05;;;;;;;8.65;4.03;;;10.40;99.90;;;;;;4936490;29;20086;-85
2023/11/16 06:55:34;;;;;;;12.32;5.13;;;10.40;99.90;;;;;;4932036;29;20288;-84
2023/11/16 06:58:01;;;;;;;9.90;5.28;;;10.40;99.90;;;;;;4952804;28;20023;-84
2023/11/16 07:00:27;;;;;;;12.68;5.13;;;10.30;99.90;;;;;;4955560;28;20031;-85
2023/11/16 07:02:54;;;;;;;10.65;4.85;;;10.30;99.90;;;;;;4955215;28;20076;-85
2023/11/16 07:05:20;;;;;;;17.58;6.47;;;10.30;99.90;;;;;;4955586;28;20108;-86
2023/11/16 07:07:45;;;;;;;10.73;5.65;;;10.30;99.90;;;;;;4955482;28;20115;-85
2023/11/16 07:10:12;;;;;;;11.27;6.00;;;10.30;99.90;;;;;;4954887;28;20024;-84
2023/11/16 07:12:42;;;;;;;12.73;6.50;;;10.30;99.90;;;;;;4946726;28;20035;-85
2023/11/16 07:15:09;;;;;;;10.85;6.43;;;10.30;99.90;;;;;;4926298;29;20035;-86
2023/11/16 07:17:37;;;;;;;15.82;7.22;;;10.30;99.90;;;;;;4935534;29;20106;-85
2023/11/16 07:20:11;;;;;;;14.23;7.35;;;10.20;99.90;;;;;;4935939;29;20086;-85
2023/11/16 07:22:37;;;;;;;15.30;8.32;;;10.30;99.90;;;;;;4935600;29;20035;-86
2023/11/16 07:25:07;;;;;;;14.07;8.23;;;10.30;99.90;;;;;;4925271;29;20028;-84
2023/11/16 07:27:38;;;;;;;24.08;7.97;;;10.30;99.90;;;;;;4918937;29;20036;-85
2023/11/16 07:30:04;;;;;;;;;;;10.30;99.90;;;;;;4917689;29;20028;-85
2023/11/16 07:32:30;;;;;;;13.52;7.43;;;10.30;99.90;;;;;;4926862;29;19922;-86
2023/11/16 07:34:56;;;;;;;13.27;7.35;;;10.30;99.90;;;;;;4935391;29;20376;-86
2023/11/16 07:37:22;;;;;;;13.10;7.53;;;10.30;99.90;;;;;;4926855;29;20027;-85
2023/11/16 07:39:48;;;;;;;13.93;6.75;;;10.30;99.90;;;;;;4935223;29;20051;-85
2023/11/16 07:42:13;;;;;;;15.98;8.30;;;10.30;99.90;;;;;;4935351;29;20031;-85
2023/11/16 07:44:41;;;;;;;18.83;9.70;;;10.30;99.90;;;;;;4941451;29;20572;-85
2023/11/16 07:47:08;;;;;;;16.52;8.82;;;10.30;99.90;;;;;;4955322;28;20035;-86
2023/11/16 07:49:35;;;;;;;14.90;9.43;;;10.30;99.90;;;;;;4948045;28;20528;-86
2023/11/16 07:52:01;;;;;;;15.88;9.57;;;10.20;99.90;;;;;;4927553;29;20048;-86
2023/11/16 07:54:27;;;;;;;15.65;8.40;;;10.20;99.90;;;;;;4925756;29;20648;-87
2023/11/16 07:56:55;;;;;;;16.98;7.90;;;11.40;99.90;;;;;;4929700;29;20039;-85
2023/11/16 07:59:25;;;;;;;14.75;7.45;;;10.20;99.90;;;;;;4930891;29;20059;-86
2023/11/16 08:01:55;;;;;;;;;;;10.10;99.90;;;;;;4923850;29;20036;-88
2023/11/16 08:04:23;;;;;;;27.95;10.50;;;10.20;99.90;;;;;;4923563;29;20531;-87
2023/11/16 08:06:51;;;;;;;26.63;11.30;;;10.10;99.90;;;;;;4920417;29;20070;-88
2023/11/16 08:09:19;;;;;;;25.98;11.05;;;10.10;99.90;;;;;;4920158;29;20032;-86
2023/11/16 08:11:48;;;;;;;15.48;9.27;;;10.10;99.90;;;;;;4925861;29;20480;-87
2023/11/16 08:14:13;;;;;;;14.82;8.05;;;10.10;99.90;;;;;;4934704;29;20043;-86
2023/11/16 08:16:39;;;;;;;12.48;8.00;;;10.10;99.90;;;;;;4931761;29;20090;-87
2023/11/16 08:19:06;;;;;;;17.27;9.07;;;10.80;99.90;;;;;;4934707;29;20016;-87
2023/11/16 08:21:31;;;;;;;16.10;7.25;;;10.20;99.90;;;;;;4921146;29;20028;-89
2023/11/16 08:23:57;;;;;;;13.88;7.85;;;10.20;99.90;;;;;;4915564;29;20025;-84
2023/11/16 08:26:23;;;;;;;15.75;8.68;;;10.20;99.90;;;;;;4928139;29;20500;-87
2023/11/16 08:28:49;;;;;;;15.77;9.10;;;10.20;99.90;;;;;;4932803;29;20024;-86
2023/11/16 08:31:16;;;;;;;15.55;8.48;;;10.20;99.90;;;;;;4933082;29;20488;-89
2023/11/16 08:33:43;;;;;;;13.60;7.80;;;10.20;99.90;;;;;;4931938;29;20024;-87
2023/11/16 08:36:11;;;;;;;20.38;9.13;;;10.20;99.90;;;;;;4932666;29;20091;-87
2023/11/16 08:38:41;;;;;;;12.88;9.00;;;10.20;99.90;;;;;;4934117;29;20059;-81
2023/11/16 08:41:07;;;;;;;19.83;8.70;;;10.20;99.90;;;;;;4924836;29;20043;-85
2023/11/16 08:43:33;;;;;;;17.63;8.35;;;10.20;99.90;;;;;;4916404;29;20028;-86
2023/11/16 08:45:59;;;;;;;16.67;8.82;;;10.20;99.90;;;;;;4916280;29;20103;-85
2023/11/16 08:48:31;;;;;;;18.27;8.73;;;10.20;99.90;;;;;;4916399;29;20046;-83
2023/11/16 08:51:05;;;;;;;13.93;8.27;;;10.20;99.90;;;;;;4934455;29;20198;-86
2023/11/16 08:53:33;;;;;;;16.50;8.40;;;10.20;99.90;;;;;;4934564;29;20087;-85
2023/11/16 08:56:03;;;;;;;19.17;9.20;;;10.20;99.90;;;;;;4933521;29;20028;-85
2023/11/16 08:58:32;;;;;;;11.38;7.95;;;10.20;99.90;;;;;;4934954;29;20477;-82
2023/11/16 09:01:05;;;;;;;19.83;8.93;;;10.20;99.90;;;;;;4928830;29;20032;-82
2023/11/16 09:03:33;;;;;;;14.48;8.40;;;10.30;99.90;;;;;;4915412;29;20036;-90
2023/11/16 09:06:02;;;;;;;16.52;8.70;;;10.20;99.90;;;;;;4924141;29;20020;-86
2023/11/16 09:08:28;;;;;;;15.15;8.35;;;10.10;99.90;;;;;;4930501;29;20031;-87
2023/11/16 09:10:54;;;;;;;18.52;9.40;;;10.10;99.90;;;;;;4926276;29;20070;-84
2023/11/16 09:13:22;;;;;;;17.70;8.88;;;10.00;99.90;;;;;;4916084;29;20437;-85
2023/11/16 09:15:49;;;;;;;13.13;8.00;;;10.00;99.90;;;;;;4921704;29;20028;-84
2023/11/16 09:18:15;;;;;;;14.05;8.75;;;10.00;99.90;;;;;;4914150;29;20024;-84
2023/11/16 09:20:45;;;;;;;18.10;9.45;;;10.00;99.90;;;;;;4917150;29;20047;-84
2023/11/16 09:23:12;;;;;;;14.73;8.05;;;10.10;99.90;;;;;;4919475;29;20128;-85
2023/11/16 09:25:38;;;;;;;13.60;8.32;;;10.10;99.90;;;;;;4915510;29;20079;-84
2023/11/16 09:28:06;;;;;;;15.65;7.78;;;10.20;99.90;;;;;;4915777;29;20032;-84
2023/11/16 09:30:34;;;;;;;9.57;7.43;;;10.20;99.90;;;;;;4916781;29;20044;-85
2023/11/16 09:33:01;;;;;;;14.98;7.68;;;10.20;99.90;;;;;;4923650;29;20059;-85
2023/11/16 09:35:27;;;;;;;18.85;8.50;;;10.20;99.90;;;;;;4931224;29;20389;-84
2023/11/16 09:37:55;;;;;;;13.50;7.72;;;11.10;99.90;;;;;;4925144;29;20036;-83
2023/11/16 09:40:28;;;;;;;11.25;7.28;;;10.20;99.90;;;;;;4929128;29;20032;-83
2023/11/16 09:42:58;;;;;;;12.18;7.43;;;10.20;99.90;;;;;;4917093;29;20028;-82
2023/11/16 09:45:27;;;;;;;18.77;8.18;;;10.20;99.90;;;;;;4920754;29;20034;-83
2023/11/16 09:48:06;;;;;;;12.23;7.82;;;10.20;99.90;;;;;;4925317;29;20098;-83
2023/11/16 09:50:33;;;;;;;14.07;7.65;;;10.20;99.90;;;;;;4919979;29;20056;-82
2023/11/16 09:53:03;;;;;;;16.73;7.88;;;10.60;99.90;;;;;;4932432;29;20524;-84
2023/11/16 09:55:32;;;;;;;17.98;8.13;;;10.30;99.90;;;;;;4933973;29;20461;-84
2023/11/16 09:58:08;;;;;;;15.32;8.27;;;10.30;99.90;;;;;;4918649;29;20485;-84
2023/11/16 10:00:39;;;;;;;13.73;7.72;;;10.30;99.90;;;;;;4917536;29;20036;-84
2023/11/16 10:03:05;;;;;;;14.27;7.45;;;10.30;99.90;;;;;;4917140;29;20091;-83
2023/11/16 10:05:40;;;;;;;25.50;8.75;;;10.30;99.90;;;;;;4917459;29;20028;-84
2023/11/16 10:08:14;;;;;;;12.55;7.45;;;10.70;99.90;;;;;;4923473;29;20027;-83
2023/11/16 10:10:50;;;;;;;14.02;7.68;;;10.30;99.90;;;;;;4917701;29;20119;-83
2023/11/16 10:13:17;;;;;;;15.88;9.07;;;10.70;99.90;;;;;;4919259;29;20080;-84
2023/11/16 10:15:43;;;;;;;12.82;7.55;;;10.30;99.90;;;;;;4915353;29;20032;-83
2023/11/16 10:18:10;;;;;;;16.77;8.20;;;10.40;99.90;;;;;;4914992;29;20082;-84
2023/11/16 10:20:39;;;;;;;14.80;8.18;;;10.90;99.90;;;;;;4915653;29;20107;-84
2023/11/16 10:23:07;;;;;;;11.77;7.95;;;10.90;99.90;;;;;;4916585;29;20055;-83
2023/11/16 10:25:34;;;;;;;17.52;8.65;;;10.60;99.90;;;;;;4916180;29;20044;-84
2023/11/16 10:28:00;;;;;;;10.63;7.55;;;10.40;99.90;;;;;;4928015;29;20028;-84
2023/11/16 10:30:26;;;;;;;13.55;8.07;;;10.40;99.90;;;;;;4935217;29;20547;-84
2023/11/16 10:32:53;;;;;;;13.70;7.68;;;11.20;99.90;;;;;;4936435;29;20039;-84
2023/11/16 10:35:18;;;;;;;12.35;7.93;;;10.50;99.90;;;;;;4936550;29;20063;-84
2023/11/16 10:37:44;;;;;;;13.10;8.13;;;10.60;99.90;;;;;;4936507;29;20114;-83
2023/11/16 10:40:11;;;;;;;10.80;7.70;;;10.70;99.90;;;;;;4937194;29;20463;-85
2023/11/16 10:42:41;;;;;;;14.75;8.35;;;10.50;99.90;;;;;;4936600;29;20381;-84
2023/11/16 10:45:16;;;;;;;14.57;7.70;;;11.10;99.90;;;;;;4932674;29;20032;-82
2023/11/16 10:47:44;;;;;;;10.32;6.95;;;10.50;99.90;;;;;;4931879;29;20502;-84
2023/11/16 10:50:10;;;;;;;11.45;7.38;;;11.00;99.90;;;;;;4921251;29;20489;-83
2023/11/16 10:52:40;;;;;;;13.18;8.00;;;10.50;99.90;;;;;;4930026;29;20040;-83
2023/11/16 10:55:16;;;;;;;9.73;7.53;;;10.40;99.90;;;;;;4935073;29;20035;-83
2023/11/16 10:57:42;;;;;;;15.65;8.15;;;10.50;99.90;;;;;;4917142;29;20080;-83
2023/11/16 11:00:16;;;;;;;14.13;9.07;;;10.50;99.90;;;;;;4922511;29;20102;-83
2023/11/16 11:02:46;;;;;;;13.60;9.82;;;10.40;99.90;;;;;;4929213;29;20028;-84
2023/11/16 11:05:15;;;;;;;12.25;8.70;;;10.40;99.90;;;;;;4936214;29;20027;-83
2023/11/16 11:07:48;;;;;;;15.98;9.30;;;10.40;99.90;;;;;;4927904;29;20469;-82
2023/11/16 11:10:15;;;;;;;12.75;8.38;;;10.40;99.90;;;;;;4932760;29;20516;-83
2023/11/16 11:12:46;;;;;;;14.02;8.25;;;10.40;99.90;;;;;;4935740;29;20036;-82
2023/11/16 11:15:24;;;;;;;14.82;8.35;;;10.30;99.90;;;;;;4935967;29;20071;-81
2023/11/16 11:17:53;;;;;;;18.85;8.75;;;10.30;99.90;;;;;;4930997;29;20035;-83
2023/11/16 11:20:43;;;;;;;11.70;10.50;;;10.20;99.90;;;;;;4936289;29;20118;-82
2023/11/16 11:23:18;;;;;;;;;;;10.30;99.90;;;;;;4933879;29;20128;-82
2023/11/16 11:25:44;;;;;;;20.00;14.25;;;10.30;99.90;;;;;;4916295;29;19994;-82
2023/11/16 11:28:16;;;;;;;20.20;14.35;;;10.30;99.90;;;;;;4913873;29;20039;-82
2023/11/16 11:31:10;;;;;;;22.40;15.43;;;10.30;99.90;;;;;;4933813;29;20082;-82
2023/11/16 11:33:35;;;;;;;22.63;16.17;;;10.40;99.90;;;;;;4933619;29;20036;-82
2023/11/16 11:36:09;;;;;;;27.27;17.15;;;10.40;99.90;;;;;;4933187;29;20512;-82
2023/11/16 11:38:39;;;;;;;22.60;14.45;;;10.40;99.90;;;;;;4933357;29;20384;-83
2023/11/16 11:41:06;;;;;;;26.70;15.00;;;10.40;99.90;;;;;;4935066;29;20499;-83
2023/11/16 11:43:34;;;;;;;14.93;13.27;;;10.40;99.90;;;;;;4935798;29;20039;-83
2023/11/16 11:46:00;;;;;;;14.80;12.27;;;10.40;99.90;;;;;;4935198;29;20054;-84
2023/11/16 11:48:26;;;;;;;19.85;11.25;;;10.40;99.90;;;;;;4935401;29;20484;-82
2023/11/16 11:50:56;;;;;;;14.65;11.00;;;10.40;99.90;;;;;;4931924;29;20056;-84
2023/11/16 11:53:31;;;;;;;17.00;11.02;;;10.40;99.90;;;;;;4934335;29;20028;-83
2023/11/16 11:55:57;;;;;;;16.30;11.00;;;10.50;99.90;;;;;;4924754;29;20032;-83
2023/11/16 11:58:24;;;;;;;17.05;11.55;;;10.30;99.90;;;;;;4934183;29;20047;-83
2023/11/16 12:00:52;;;;;;;17.70;11.02;;;10.30;99.90;;;;;;4907054;29;20067;-83
2023/11/16 12:03:18;;;;;;;16.58;10.40;;;10.30;99.90;;;;;;4920871;29;20024;-83
2023/11/16 12:05:47;;;;;;;14.63;10.23;;;11.10;99.90;;;;;;4923045;29;20536;-83
2023/11/16 12:08:13;;;;;;;16.20;10.35;;;10.30;99.90;;;;;;4916668;29;20028;-83
2023/11/16 12:10:39;;;;;;;20.25;11.45;;;10.30;99.90;;;;;;4928807;29;20028;-83
2023/11/16 12:13:07;;;;;;;15.00;10.88;;;11.50;99.90;;;;;;4940112;28;20024;-83
2023/11/16 12:15:34;;;;;;;17.73;10.90;;;10.20;99.90;;;;;;4919890;29;20035;-83
2023/11/16 12:18:07;;;;;;;22.10;11.15;;;10.30;99.90;;;;;;4939236;29;20046;-84
2023/11/16 12:20:36;;;;;;;18.30;10.65;;;10.30;99.90;;;;;;4949514;28;20094;-84
2023/11/16 12:23:04;;;;;;;15.18;10.00;;;10.30;99.90;;;;;;4945998;29;20510;-83
2023/11/16 12:25:30;;;;;;;15.20;9.82;;;11.20;99.90;;;;;;4954206;28;20038;-84
2023/11/16 12:27:58;;;;;;;15.10;9.73;;;10.30;99.90;;;;;;4940516;28;20028;-84
2023/11/16 12:30:24;;;;;;;17.73;10.93;;;10.30;99.90;;;;;;4931992;29;20038;-84
2023/11/16 12:32:49;;;;;;;14.35;9.98;;;10.30;99.90;;;;;;4930345;29;20044;-84
2023/11/16 12:35:15;;;;;;;19.38;11.18;;;10.30;99.90;;;;;;4932570;29;20055;-84
2023/11/16 12:37:42;;;;;;;19.80;11.38;;;10.50;99.90;;;;;;4917483;29;20028;-84
2023/11/16 12:40:16;;;;;;;16.13;11.05;;;10.30;99.90;;;;;;4917152;29;20107;-84
2023/11/16 12:42:47;;;;;;;22.58;11.25;;;10.30;99.90;;;;;;4914216;29;20040;-84
2023/11/16 12:45:13;;;;;;;16.20;11.48;;;10.30;99.90;;;;;;4919534;29;20052;-84